Time;durP1;ratioP1;P1;durP2;ratioP2;P2;SDS_P1;SDS_P2;PMS_P1;PMS_P2;Temp;Humidity;BMP_temperature;BMP_pressure;BME280_temperature;BME280_humidity;BME280_pressure;Samples;Min_cycle;Max_cycle;Signal;HPM_P1;HPM_P2
2023/02/07 00:00:22;;;;;;;25.10;13.23;;;;;;;-8.51;100.00;103443.72;5023182;28;20528;-72
2023/02/07 00:02:50;;;;;;;23.50;12.37;;;;;;;-8.22;100.00;103444.84;5025228;28;21057;-71
2023/02/07 00:05:17;;;;;;;26.83;12.70;;;;;;;-8.38;100.00;103436.53;5016907;28;20460;-72
2023/02/07 00:07:43;;;;;;;29.73;13.30;;;;;;;-8.58;100.00;103440.59;5021725;28;20486;-71
2023/02/07 00:10:10;;;;;;;26.73;13.90;;;;;;;-8.63;100.00;103439.28;5027972;28;21053;-71
2023/02/07 00:12:36;;;;;;;33.07;14.13;;;;;;;-8.67;100.00;103449.84;5023220;28;20718;-71
2023/02/07 00:15:03;;;;;;;24.03;12.27;;;;;;;-8.73;100.00;103454.28;5025670;28;20466;-72
2023/02/07 00:17:29;;;;;;;31.20;13.37;;;;;;;-8.45;100.00;103462.03;5022316;28;20471;-71
2023/02/07 00:19:58;;;;;;;29.10;14.07;;;;;;;-8.39;100.00;103450.84;5032316;28;20510;-72
2023/02/07 00:22:24;;;;;;;22.77;12.33;;;;;;;-8.41;100.00;103454.88;5023655;28;21070;-72
2023/02/07 00:24:50;;;;;;;24.87;12.63;;;;;;;-8.52;100.00;103442.84;5020401;28;20460;-71
2023/02/07 00:27:17;;;;;;;27.30;12.23;;;;;;;-8.58;100.00;103447.31;5021290;28;20977;-72
2023/02/07 00:29:45;;;;;;;22.13;11.57;;;;;;;-8.74;100.00;103444.03;5019674;28;20475;-72
2023/02/07 00:32:11;;;;;;;23.30;11.17;;;;;;;-8.60;100.00;103446.25;5025499;22;20504;-74
2023/02/07 00:34:38;;;;;;;24.23;11.90;;;;;;;-8.71;100.00;103431.69;4978591;28;20635;-74
2023/02/07 00:37:06;;;;;;;25.43;11.50;;;;;;;-8.66;100.00;103438.09;4983722;28;20468;-73
2023/02/07 00:39:33;;;;;;;21.40;11.60;;;;;;;-8.72;100.00;103448.50;4980418;28;20450;-73
2023/02/07 00:42:04;;;;;;;23.50;12.33;;;;;;;-8.79;100.00;103446.13;4981924;28;20481;-73
2023/02/07 00:44:31;;;;;;;29.37;13.30;;;;;;;-9.03;100.00;103442.97;4980338;28;21035;-73
2023/02/07 00:46:58;;;;;;;21.17;10.73;;;;;;;-8.96;100.00;103441.94;4980814;28;20461;-72
2023/02/07 00:49:24;;;;;;;18.40;10.67;;;;;;;-8.95;100.00;103442.09;4981869;28;20453;-73
2023/02/07 00:51:51;;;;;;;23.03;11.43;;;;;;;-8.90;100.00;103437.47;4996653;28;20474;-74
2023/02/07 00:54:18;;;;;;;24.70;10.73;;;;;;;-8.85;100.00;103433.75;4979929;28;20461;-73
2023/02/07 00:56:45;;;;;;;23.20;12.40;;;;;;;-9.18;100.00;103433.84;4982400;28;20550;-73
2023/02/07 00:59:11;;;;;;;20.90;10.70;;;;;;;-9.17;100.00;103436.53;4985763;28;20459;-74
2023/02/07 01:01:37;;;;;;;26.93;12.23;;;;;;;-9.05;100.00;103425.88;4984541;28;20491;-72
2023/02/07 01:04:04;;;;;;;24.83;11.67;;;;;;;-8.87;100.00;103429.28;4984515;28;20977;-73
2023/02/07 01:06:32;;;;;;;26.20;11.90;;;;;;;-8.92;100.00;103426.31;4983273;28;20456;-74
2023/02/07 01:08:59;;;;;;;23.87;11.93;;;;;;;-8.98;100.00;103423.19;4984510;28;20460;-74
2023/02/07 01:11:29;;;;;;;21.37;11.47;;;;;;;-9.07;100.00;103419.78;4985627;28;20452;-74
2023/02/07 01:13:55;;;;;;;22.13;11.67;;;;;;;-9.19;100.00;103427.91;4983276;28;20488;-74
2023/02/07 01:16:24;;;;;;;23.67;11.53;;;;;;;-9.09;100.00;103432.25;4984059;28;20460;-74
2023/02/07 01:18:51;;;;;;;18.40;10.43;;;;;;;-9.26;100.00;103425.53;4985904;28;20462;-74
2023/02/07 01:21:19;;;;;;;27.97;10.40;;;;;;;-9.29;100.00;103432.78;5003254;28;20456;-74
2023/02/07 01:23:45;;;;;;;22.53;11.03;;;;;;;-9.15;100.00;103426.59;4982422;28;20547;-74
2023/02/07 01:26:12;;;;;;;26.50;12.33;;;;;;;-9.03;100.00;103420.22;4981563;28;20453;-74
2023/02/07 01:28:39;;;;;;;18.80;10.67;;;;;;;-9.11;100.00;103421.09;4983885;28;20464;-74
2023/02/07 01:31:08;;;;;;;22.03;10.90;;;;;;;-9.10;100.00;103422.00;4985013;28;20830;-74
2023/02/07 01:33:35;;;;;;;26.13;12.20;;;;;;;-9.09;100.00;103426.28;4985076;28;20480;-74
2023/02/07 01:36:06;;;;;;;22.97;11.80;;;;;;;-8.95;100.00;103426.91;4997579;28;20543;-74
2023/02/07 01:38:33;;;;;;;26.57;11.70;;;;;;;-8.95;100.00;103416.81;4983817;28;20453;-74
2023/02/07 01:40:59;;;;;;;25.00;11.00;;;;;;;-8.99;100.00;103418.88;4985571;28;20472;-72
2023/02/07 01:43:27;;;;;;;25.53;10.63;;;;;;;-9.08;100.00;103416.34;4983621;28;20798;-74
2023/02/07 01:45:55;;;;;;;23.93;11.93;;;;;;;-9.10;100.00;103409.34;4992377;28;20497;-73
2023/02/07 01:48:24;;;;;;;23.83;11.63;;;;;;;-9.35;100.00;103407.81;4985656;28;20463;-73
2023/02/07 01:50:53;;;;;;;25.87;12.20;;;;;;;-9.46;100.00;103408.41;4996948;28;20560;-74
2023/02/07 01:53:22;;;;;;;23.77;12.07;;;;;;;-9.23;100.00;103399.66;4984913;28;20480;-73
2023/02/07 01:55:51;;;;;;;19.50;11.90;;;;;;;-9.52;100.00;103410.31;4975228;28;20461;-73
2023/02/07 01:58:18;;;;;;;22.77;11.50;;;;;;;-9.56;100.00;103415.78;5000220;28;20472;-74
2023/02/07 02:00:46;;;;;;;23.37;10.67;;;;;;;-9.82;100.00;103420.75;4984935;28;20471;-74
2023/02/07 02:03:13;;;;;;;17.40;10.90;;;;;;;-9.76;100.00;103427.31;4982937;28;20481;-74
2023/02/07 02:05:42;;;;;;;21.13;10.77;;;;;;;-9.75;100.00;103416.47;4982776;28;20465;-73
2023/02/07 02:08:09;;;;;;;17.17;9.93;;;;;;;-9.76;100.00;103424.78;4998534;28;20534;-74
2023/02/07 02:10:54;;;;;;;22.57;10.67;;;;;;;-9.71;100.00;103426.16;4988530;28;20467;-74
2023/02/07 02:13:28;;;;;;;25.17;11.90;;;;;;;-9.86;100.00;103432.16;4985350;28;20480;-73
2023/02/07 02:16:04;;;;;;;19.93;9.80;;;;;;;-9.45;100.00;103442.13;4979583;28;20483;-73
2023/02/07 02:18:43;;;;;;;22.80;10.30;;;;;;;-9.28;100.00;103437.13;4986360;28;20457;-72
2023/02/07 02:21:45;;;;;;;25.37;10.17;;;;;;;-9.42;100.00;103433.22;5000896;28;20460;-73
2023/02/07 02:24:47;;;;;;;19.80;10.77;;;;;;;-9.43;100.00;103439.00;4982457;28;20461;-73
2023/02/07 02:27:26;;;;;;;15.73;9.63;;;;;;;-9.68;100.00;103439.81;4978322;28;20804;-73
2023/02/07 02:30:17;;;;;;;19.30;10.43;;;;;;;-9.62;100.00;103448.91;4998392;28;20468;-72
2023/02/07 02:33:19;;;;;;;19.07;9.97;;;;;;;-9.59;100.00;103446.69;4983849;28;20999;-72
2023/02/07 02:35:55;;;;;;;21.73;10.73;;;;;;;-9.35;100.00;103445.72;4979806;28;20459;-74
2023/02/07 02:38:29;;;;;;;20.77;9.83;;;;;;;-9.30;100.00;103442.75;4995682;28;20460;-73
2023/02/07 02:41:01;;;;;;;16.90;8.83;;;;;;;-9.42;100.00;103428.16;4999623;28;21004;-72
2023/02/07 02:43:34;;;;;;;19.47;9.77;;;;;;;-9.31;100.00;103433.41;4998290;28;20480;-73
2023/02/07 02:46:06;;;;;;;22.53;10.40;;;;;;;-9.44;100.00;103419.53;4977648;28;20555;-73
2023/02/07 02:48:35;;;;;;;18.37;10.23;;;;;;;-9.77;100.00;103420.47;4981777;28;20996;-72
2023/02/07 02:51:02;;;;;;;15.50;10.07;;;;;;;-9.88;100.00;103422.63;4981601;28;20814;-73
2023/02/07 02:53:28;;;;;;;22.00;10.27;;;;;;;-9.56;100.00;103429.31;5002869;28;20485;-73
2023/02/07 02:56:14;;;;;;;24.87;10.50;;;;;;;-9.48;100.00;103417.44;4981210;28;20500;-73
2023/02/07 02:58:59;;;;;;;17.87;10.67;;;;;;;-9.49;100.00;103422.38;4980356;28;20464;-73
2023/02/07 03:01:35;;;;;;;17.63;8.57;;;;;;;-9.52;100.00;103421.28;4987697;28;20465;-72
2023/02/07 03:04:28;;;;;;;20.73;10.37;;;;;;;-9.49;100.00;103410.63;4999932;28;20441;-71
2023/02/07 03:07:08;;;;;;;18.90;10.37;;;;;;;-9.48;100.00;103402.28;4997635;28;20537;-72
2023/02/07 03:09:43;;;;;;;17.73;10.07;;;;;;;-9.70;100.00;103414.41;4996246;28;21011;-71
2023/02/07 03:12:17;;;;;;;18.00;9.10;;;;;;;-9.60;100.00;103413.69;5016981;28;20832;-73
2023/02/07 03:14:53;;;;;;;21.83;10.47;;;;;;;-9.61;100.00;103411.91;5000415;28;20461;-72
2023/02/07 03:17:26;;;;;;;16.70;9.53;;;;;;;-9.53;100.00;103408.53;4999277;28;20523;-72
2023/02/07 03:20:04;;;;;;;20.33;10.27;;;;;;;-9.55;100.00;103422.63;5002016;28;20470;-70
2023/02/07 03:22:33;;;;;;;18.27;9.03;;;;;;;-9.58;100.00;103409.69;5003602;28;20488;-73
2023/02/07 03:25:02;;;;;;;15.47;9.40;;;;;;;-9.71;100.00;103413.53;5003597;28;20471;-72
2023/02/07 03:27:33;;;;;;;20.57;10.17;;;;;;;-9.75;100.00;103421.50;5001569;28;20795;-72
2023/02/07 03:30:03;;;;;;;18.60;10.07;;;;;;;-9.84;100.00;103418.06;4997395;28;20464;-72
2023/02/07 03:32:32;;;;;;;22.03;11.03;;;;;;;-9.72;100.00;103415.88;4992164;28;20480;-72
2023/02/07 03:35:06;;;;;;;23.67;11.30;;;;;;;-9.61;100.00;103424.53;4991014;28;20548;-72
2023/02/07 03:37:36;;;;;;;18.67;8.90;;;;;;;-9.77;100.00;103422.09;4990688;28;20456;-72
2023/02/07 03:40:05;;;;;;;22.20;10.37;;;;;;;-9.83;100.00;103412.28;5005166;28;20833;-73
2023/02/07 03:42:35;;;;;;;21.10;10.73;;;;;;;-9.57;100.00;103409.84;4991006;28;20469;-72
2023/02/07 03:45:04;;;;;;;18.03;9.17;;;;;;;-9.82;100.00;103411.53;4989191;28;20460;-73
2023/02/07 03:47:30;;;;;;;19.80;9.63;;;;;;;-9.76;100.00;103411.25;4986992;28;20978;-72
2023/02/07 03:49:58;;;;;;;21.63;9.57;;;;;;;-9.61;100.00;103405.22;4985345;28;20459;-72
2023/02/07 03:52:26;;;;;;;18.77;10.07;;;;;;;-9.71;100.00;103400.91;4987987;28;20471;-72
2023/02/07 03:54:52;;;;;;;24.63;10.20;;;;;;;-9.63;100.00;103400.78;4985529;28;20468;-73
2023/02/07 03:57:18;;;;;;;21.43;10.03;;;;;;;-9.70;100.00;103399.25;4989934;28;20806;-71
2023/02/07 03:59:45;;;;;;;18.10;9.87;;;;;;;-9.85;100.00;103405.28;4996075;28;20467;-72
2023/02/07 04:02:11;;;;;;;20.93;10.23;;;;;;;-9.83;100.00;103397.13;4986686;28;20491;-71
2023/02/07 04:04:38;;;;;;;19.90;9.07;;;;;;;-9.82;100.00;103398.91;4986505;28;20449;-73
2023/02/07 04:07:04;;;;;;;20.80;10.67;;;;;;;-9.71;100.00;103388.28;4985272;28;20487;-72
2023/02/07 04:09:32;;;;;;;25.27;10.77;;;;;;;-9.68;100.00;103390.19;4988353;28;20467;-73
2023/02/07 04:11:58;;;;;;;23.60;12.03;;;;;;;-9.89;100.00;103401.56;4983829;28;20568;-72
2023/02/07 04:14:25;;;;;;;18.73;9.70;;;;;;;-9.81;100.00;103403.22;4981932;28;20483;-72
2023/02/07 04:16:51;;;;;;;22.13;10.13;;;;;;;-10.01;100.00;103401.19;4984172;28;20470;-72
2023/02/07 04:19:18;;;;;;;18.87;10.47;;;;;;;-10.21;100.00;103399.19;4985687;28;20535;-73
2023/02/07 04:21:44;;;;;;;21.33;10.83;;;;;;;-10.51;100.00;103404.53;4985897;28;20468;-72
2023/02/07 04:24:11;;;;;;;19.63;11.40;;;;;;;-10.39;100.00;103415.00;4985002;28;20947;-72
2023/02/07 04:26:39;;;;;;;24.07;10.80;;;;;;;-10.51;100.00;103412.97;4981347;28;20515;-71
2023/02/07 04:29:07;;;;;;;25.30;13.00;;;;;;;-10.76;100.00;103411.13;4983574;28;20979;-73
2023/02/07 04:31:34;;;;;;;29.47;15.30;;;;;;;-10.90;100.00;103403.03;4986525;28;20475;-73
2023/02/07 04:34:00;;;;;;;32.10;13.87;;;;;;;-10.71;100.00;103402.44;4988513;28;21058;-73
2023/02/07 04:36:28;;;;;;;26.37;13.23;;;;;;;-10.52;100.00;103401.13;4988563;28;20518;-73
2023/02/07 04:38:55;;;;;;;22.63;11.63;;;;;;;-10.39;100.00;103397.34;4987965;28;20456;-72
2023/02/07 04:41:21;;;;;;;20.50;12.57;;;;;;;-10.19;100.00;103394.28;4987818;28;20460;-72
2023/02/07 04:43:49;;;;;;;21.20;11.87;;;;;;;-10.20;100.00;103400.97;4988414;28;20450;-73
2023/02/07 04:46:15;;;;;;;27.70;12.93;;;;;;;-10.17;100.00;103395.34;5000946;28;20464;-71
2023/02/07 04:48:42;;;;;;;21.10;13.47;;;;;;;-10.23;100.00;103398.13;4987358;28;20864;-72
2023/02/07 04:51:08;;;;;;;31.07;12.07;;;;;;;-10.48;100.00;103392.25;4987278;28;20460;-72
2023/02/07 04:53:35;;;;;;;24.07;13.40;;;;;;;-10.33;100.00;103410.56;4987648;28;20475;-73
2023/02/07 04:56:03;;;;;;;26.70;12.30;;;;;;;-10.21;100.00;103401.69;4986605;28;20495;-72
2023/02/07 04:58:29;;;;;;;28.07;13.23;;;;;;;-10.26;100.00;103402.84;4986050;28;20996;-72
2023/02/07 05:00:57;;;;;;;23.03;12.27;;;;;;;-10.16;100.00;103410.63;4985489;28;20468;-73
2023/02/07 05:03:26;;;;;;;21.57;13.33;;;;;;;-9.92;100.00;103408.81;4983762;28;20484;-72
2023/02/07 05:05:54;;;;;;;29.17;14.33;;;;;;;-10.28;100.00;103400.16;4988292;28;20898;-73
2023/02/07 05:08:21;;;;;;;23.63;11.70;;;;;;;-10.24;100.00;103393.81;4986313;28;20844;-73
2023/02/07 05:10:52;;;;;;;20.87;13.00;;;;;;;-10.18;100.00;103406.16;4970669;28;20596;-72
2023/02/07 05:13:18;;;;;;;20.97;11.23;;;;;;;-10.11;100.00;103411.13;4986885;28;20476;-73
2023/02/07 05:15:45;;;;;;;20.07;10.63;;;;;;;-10.13;100.00;103412.56;4986104;28;20963;-72
2023/02/07 05:18:12;;;;;;;23.33;11.37;;;;;;;-10.04;100.00;103417.66;4984435;28;20456;-72
2023/02/07 05:20:39;;;;;;;22.93;11.57;;;;;;;-10.42;100.00;103419.72;4978160;28;20818;-72
2023/02/07 05:23:05;;;;;;;28.97;12.80;;;;;;;-10.41;100.00;103424.00;4981221;28;20476;-73
2023/02/07 05:25:32;;;;;;;21.73;10.80;;;;;;;-10.29;100.00;103420.19;4996856;28;20464;-73
2023/02/07 05:27:58;;;;;;;22.07;11.03;;;;;;;-9.93;100.00;103428.13;4982330;28;20465;-73
2023/02/07 05:30:24;;;;;;;19.63;12.50;;;;;;;-9.95;100.00;103437.19;4987803;28;20468;-73
2023/02/07 05:33:05;;;;;;;15.57;11.23;;;;;;;-10.00;100.00;103434.94;4985500;28;20576;-73
2023/02/07 05:35:33;;;;;;;24.03;12.50;;;;;;;-9.98;100.00;103434.34;4987741;28;20511;-72
2023/02/07 05:38:00;;;;;;;24.93;12.90;;;;;;;-9.88;100.00;103430.22;4983357;28;20832;-72
2023/02/07 05:40:28;;;;;;;19.60;11.10;;;;;;;-9.90;100.00;103423.41;4981832;28;20477;-72
2023/02/07 05:42:54;;;;;;;23.30;11.53;;;;;;;-9.82;100.00;103424.16;4978410;28;21030;-72
2023/02/07 05:45:21;;;;;;;21.40;12.03;;;;;;;-10.02;100.00;103422.16;4982312;28;20471;-72
2023/02/07 05:47:47;;;;;;;22.60;11.97;;;;;;;-10.27;100.00;103426.31;4980394;28;20530;-71
2023/02/07 05:50:14;;;;;;;26.33;12.10;;;;;;;-10.18;100.00;103426.34;4991595;28;20475;-72
2023/02/07 05:52:42;;;;;;;23.03;11.90;;;;;;;-10.14;100.00;103421.78;4981672;28;20485;-73
2023/02/07 05:55:11;;;;;;;25.43;12.77;;;;;;;-10.08;100.00;103416.47;4975785;28;20492;-71
2023/02/07 05:57:38;;;;;;;22.10;12.67;;;;;;;-10.10;100.00;103420.47;4991257;28;20459;-73
2023/02/07 06:00:06;;;;;;;24.30;12.30;;;;;;;-10.04;100.00;103418.56;4972003;28;20817;-72
2023/02/07 06:02:38;;;;;;;20.87;11.53;;;;;;;-10.26;100.00;103422.16;4975110;28;20863;-73
2023/02/07 06:05:04;;;;;;;23.53;11.63;;;;;;;-10.15;100.00;103422.53;4979598;28;21742;-73
2023/02/07 06:07:31;;;;;;;27.30;13.73;;;;;;;-10.07;100.00;103418.25;4979919;28;21113;-73
2023/02/07 06:09:59;;;;;;;21.97;12.17;;;;;;;-10.02;100.00;103412.06;4977253;28;20472;-73
2023/02/07 06:12:26;;;;;;;24.00;10.40;;;;;;;-10.00;100.00;103408.03;4980865;28;20488;-73
2023/02/07 06:14:52;;;;;;;15.90;10.50;;;;;;;-9.84;100.00;103413.00;4981280;28;20995;-73
2023/02/07 06:17:18;;;;;;;21.97;11.30;;;;;;;-9.92;100.00;103418.91;4974157;28;20504;-72
2023/02/07 06:19:45;;;;;;;24.03;12.60;;;;;;;-10.19;100.00;103417.88;4981095;28;20990;-73
2023/02/07 06:22:11;;;;;;;19.13;10.17;;;;;;;-10.07;100.00;103422.41;4977898;28;20495;-72
2023/02/07 06:24:37;;;;;;;20.50;10.17;;;;;;;-10.05;100.00;103431.91;4975974;28;20469;-72
2023/02/07 06:27:05;;;;;;;18.83;10.87;;;;;;;-10.05;100.00;103438.59;4978590;28;20470;-72
2023/02/07 06:29:32;;;;;;;17.30;9.33;;;;;;;-10.00;100.00;103434.94;4978533;28;20542;-71
2023/02/07 06:31:58;;;;;;;21.10;10.90;;;;;;;-9.99;100.00;103442.66;4992923;22;20502;-73
2023/02/07 06:34:24;;;;;;;19.40;9.10;;;;;;;-9.75;100.00;103451.81;5066365;28;20466;-72
2023/02/07 06:36:51;;;;;;;19.13;10.77;;;;;;;-9.84;100.00;103452.53;5069241;28;20449;-72
2023/02/07 06:39:17;;;;;;;18.70;10.87;;;;;;;-9.79;100.00;103453.91;5073874;28;20456;-72
2023/02/07 06:41:44;;;;;;;23.63;9.53;;;;;;;-9.87;100.00;103452.22;5073370;28;20447;-72
2023/02/07 06:44:11;;;;;;;22.80;11.47;;;;;;;-9.93;100.00;103445.78;5071069;28;20473;-73
2023/02/07 06:46:38;;;;;;;23.13;10.73;;;;;;;-9.97;100.00;103446.22;5069614;28;20453;-73
2023/02/07 06:49:04;;;;;;;20.67;11.03;;;;;;;-9.98;100.00;103456.16;5059176;28;20693;-73
2023/02/07 06:51:31;;;;;;;18.77;10.33;;;;;;;-10.03;100.00;103457.31;5057921;28;20670;-73
2023/02/07 06:53:58;;;;;;;19.23;11.60;;;;;;;-9.98;100.00;103461.22;5057223;28;20492;-72
2023/02/07 06:56:24;;;;;;;25.13;10.70;;;;;;;-9.97;100.00;103465.50;5075767;28;20441;-73
2023/02/07 06:58:51;;;;;;;25.00;12.47;;;;;;;-10.01;100.00;103471.00;5055977;28;20453;-73
2023/02/07 07:01:21;;;;;;;26.90;11.97;;;;;;;-10.01;100.00;103465.94;5070170;28;20935;-72
2023/02/07 07:03:47;;;;;;;24.73;13.37;;;;;;;-10.22;100.00;103465.50;5047650;28;20477;-73
2023/02/07 07:06:15;;;;;;;29.83;14.07;;;;;;;-10.02;100.00;103470.09;5066597;28;20440;-72
2023/02/07 07:08:41;;;;;;;21.10;11.67;;;;;;;-9.76;100.00;103479.44;5068413;28;20952;-72
2023/02/07 07:11:08;;;;;;;30.30;14.47;;;;;;;-9.76;100.00;103471.84;5068806;28;20445;-72
2023/02/07 07:13:34;;;;;;;28.97;15.73;;;;;;;-9.76;100.00;103480.34;5069064;28;20469;-72
2023/02/07 07:16:01;;;;;;;30.43;16.10;;;;;;;-9.81;100.00;103473.06;5056597;28;20681;-72
2023/02/07 07:18:29;;;;;;;30.60;15.23;;;;;;;-9.58;100.00;103481.31;5057285;28;20452;-73
2023/02/07 07:20:56;;;;;;;29.70;13.37;;;;;;;-9.69;100.00;103486.94;5065496;28;20441;-72
2023/02/07 07:23:22;;;;;;;23.90;13.77;;;;;;;-9.58;100.00;103485.50;5059403;28;20487;-72
2023/02/07 07:25:49;;;;;;;30.43;16.33;;;;;;;-9.53;100.00;103485.22;5071218;28;20801;-73
2023/02/07 07:28:15;;;;;;;37.07;17.13;;;;;;;-9.37;100.00;103485.13;5074258;28;20444;-72
2023/02/07 07:30:41;;;;;;;35.10;16.93;;;;;;;-9.37;100.00;103484.22;5073630;28;20885;-73
2023/02/07 07:33:08;;;;;;;56.63;28.20;;;;;;;-9.38;100.00;103483.31;5071520;28;20477;-73
2023/02/07 07:35:35;;;;;;;47.73;25.93;;;;;;;-9.22;100.00;103485.75;5069270;28;20472;-73
2023/02/07 07:38:02;;;;;;;48.87;24.53;;;;;;;-9.11;100.00;103488.44;5068456;28;20478;-72
2023/02/07 07:40:28;;;;;;;53.03;26.50;;;;;;;-9.17;100.00;103491.28;5069496;28;20484;-73
2023/02/07 07:42:55;;;;;;;42.50;25.33;;;;;;;-9.16;100.00;103493.94;5069320;28;20604;-73
2023/02/07 07:45:35;;;;;;;43.20;22.57;;;;;;;-9.05;100.00;103489.97;5056224;28;20457;-73
2023/02/07 07:48:01;;;;;;;47.20;23.40;;;;;;;-9.00;100.00;103490.44;5054920;28;20457;-73
2023/02/07 07:50:27;;;;;;;43.37;20.47;;;;;;;-9.02;100.00;103487.75;5054460;28;20456;-72
2023/02/07 07:52:55;;;;;;;39.80;19.93;;;;;;;-9.04;100.00;103488.31;5059204;28;21003;-72
2023/02/07 07:55:21;;;;;;;34.03;17.77;;;;;;;-9.00;100.00;103478.66;5054628;28;20477;-71
2023/02/07 07:57:48;;;;;;;36.07;20.53;;;;;;;-8.92;100.00;103470.94;5065781;28;20836;-73
2023/02/07 08:00:15;;;;;;;36.67;17.80;;;;;;;-8.89;100.00;103469.59;5070522;28;20457;-72
2023/02/07 08:02:44;;;;;;;38.13;16.73;;;;;;;-8.84;100.00;103475.13;5066964;28;20482;-72
2023/02/07 08:05:11;;;;;;;35.40;16.60;;;;;;;-8.73;100.00;103473.66;5076358;28;20448;-73
2023/02/07 08:07:37;;;;;;;42.87;20.40;;;;;;;-8.66;100.00;103476.91;5080956;28;20450;-73
2023/02/07 08:10:05;;;;;;;34.97;18.87;;;;;;;-8.54;100.00;103484.81;5062619;28;21012;-72
2023/02/07 08:12:32;;;;;;;43.13;18.97;;;;;;;-8.57;100.00;103484.50;5075717;28;20459;-72
2023/02/07 08:14:58;;;;;;;46.13;19.73;;;;;;;-8.51;100.00;103490.19;5075909;28;20485;-73
2023/02/07 08:17:25;;;;;;;40.13;18.83;;;;;;;-8.43;100.00;103486.72;5071804;28;20511;-73
2023/02/07 08:19:52;;;;;;;37.83;19.70;;;;;;;-8.34;100.00;103468.97;5059653;28;20528;-73
2023/02/07 08:22:18;;;;;;;39.13;20.83;;;;;;;-8.23;100.00;103467.47;5077316;28;20471;-73
2023/02/07 08:24:45;;;;;;;35.07;19.77;;;;;;;-8.18;100.00;103458.69;5079715;28;20467;-72
2023/02/07 08:27:12;;;;;;;40.27;20.73;;;;;;;-8.06;100.00;103458.97;5077034;28;20473;-72
2023/02/07 08:29:39;;;;;;;43.93;22.17;;;;;;;-8.02;100.00;103448.38;5077048;28;20449;-72
2023/02/07 08:32:05;;;;;;;42.17;18.57;;;;;;;-7.95;100.00;103453.25;5075416;28;20478;-74
2023/02/07 08:34:36;;;;;;;36.30;18.93;;;;;;;-7.88;100.00;103460.72;5078419;28;20501;-73
2023/02/07 08:37:03;;;;;;;49.90;23.77;;;;;;;-7.72;100.00;103465.56;5076101;28;20480;-73
2023/02/07 08:39:29;;;;;;;48.37;24.83;;;;;;;-7.63;100.00;103470.63;5072657;28;20449;-73
2023/02/07 08:41:56;;;;;;;38.37;17.83;;;;;;;-7.49;100.00;103467.72;5072353;28;20448;-73
2023/02/07 08:44:24;;;;;;;40.97;20.10;;;;;;;-7.37;100.00;103462.88;5074665;28;20472;-74
2023/02/07 08:46:50;;;;;;;46.27;22.80;;;;;;;-7.29;100.00;103466.13;5076562;28;20530;-73
2023/02/07 08:49:19;;;;;;;49.00;24.27;;;;;;;-7.19;100.00;103452.63;5072860;28;20451;-72
2023/02/07 08:51:46;;;;;;;65.20;30.73;;;;;;;-7.15;100.00;103455.59;5072090;28;20484;-72
2023/02/07 08:54:12;;;;;;;39.53;20.80;;;;;;;-7.08;100.00;103457.94;5071274;28;20507;-73
2023/02/07 08:56:39;;;;;;;52.47;20.97;;;;;;;-7.01;100.00;103463.59;5058509;28;20812;-74
2023/02/07 08:59:05;;;;;;;56.77;25.27;;;;;;;-6.95;100.00;103452.31;5070288;28;20456;-73
2023/02/07 09:01:33;;;;;;;42.67;21.23;;;;;;;-6.86;100.00;103460.78;5077774;28;20462;-74
2023/02/07 09:03:59;;;;;;;83.03;41.07;;;;;;;-6.70;100.00;103463.03;5074330;28;20828;-73
2023/02/07 09:06:26;;;;;;;71.83;31.33;;;;;;;-6.65;100.00;103471.06;5077322;28;21178;-71
2023/02/07 09:08:52;;;;;;;59.43;27.97;;;;;;;-6.59;100.00;103464.00;5057609;28;20454;-73
2023/02/07 09:11:19;;;;;;;41.33;18.67;;;;;;;-6.48;100.00;103458.22;5058852;28;20521;-73
2023/02/07 09:13:45;;;;;;;48.00;23.00;;;;;;;-6.40;100.00;103455.47;5073125;28;21008;-73
2023/02/07 09:16:13;;;;;;;89.97;40.33;;;;;;;-6.34;100.00;103458.56;5076576;28;20484;-72
2023/02/07 09:18:42;;;;;;;41.67;20.37;;;;;;;-6.29;100.00;103459.84;5076338;28;20996;-73
2023/02/07 09:21:09;;;;;;;55.33;25.90;;;;;;;-6.19;100.00;103459.00;5077711;28;21043;-73
2023/02/07 09:23:35;;;;;;;62.90;34.07;;;;;;;-6.08;100.00;103455.75;5054819;28;20477;-72
2023/02/07 09:26:04;;;;;;;48.63;23.87;;;;;;;-6.00;100.00;103457.28;5077380;28;20459;-72
2023/02/07 09:28:31;;;;;;;50.10;22.40;;;;;;;-5.94;100.00;103462.00;5077903;28;20452;-73
2023/02/07 09:30:57;;;;;;;48.20;23.03;;;;;;;-5.88;100.00;103464.19;5072305;28;20441;-72
2023/02/07 09:33:28;;;;;;;46.23;22.53;;;;;;;-5.81;100.00;103469.03;5070686;28;20515;-72
2023/02/07 09:35:56;;;;;;;54.77;26.20;;;;;;;-5.69;100.00;103470.09;5069155;28;20483;-73
2023/02/07 09:38:24;;;;;;;50.93;25.30;;;;;;;-5.64;100.00;103471.38;5075772;28;20460;-72
2023/02/07 09:40:52;;;;;;;44.87;21.23;;;;;;;-5.60;100.00;103473.41;5072478;28;20448;-73
2023/02/07 09:43:29;;;;;;;45.93;21.87;;;;;;;-5.54;100.00;103473.03;5073563;28;20480;-72
2023/02/07 09:45:59;;;;;;;62.90;29.40;;;;;;;-5.44;100.00;103472.16;5069884;28;20446;-73
2023/02/07 09:48:36;;;;;;;54.73;26.90;;;;;;;-5.36;100.00;103466.09;5069117;28;20442;-74
2023/02/07 09:51:05;;;;;;;62.03;29.83;;;;;;;-5.26;100.00;103466.09;5069595;28;21099;-73
2023/02/07 09:53:42;;;;;;;55.83;27.33;;;;;;;-5.14;100.00;103463.66;5066963;28;20464;-73
2023/02/07 09:56:10;;;;;;;50.53;24.10;;;;;;;-5.07;100.00;103462.53;5076031;28;21087;-73
2023/02/07 09:58:42;;;;;;;44.57;23.53;;;;;;;-5.04;100.00;103463.69;5072927;28;20556;-72
2023/02/07 10:01:15;;;;;;;48.77;24.53;;;;;;;-4.97;100.00;103467.63;5068809;28;20462;-73
2023/02/07 10:03:48;;;;;;;60.93;26.40;;;;;;;-4.86;100.00;103473.59;5073551;28;20786;-72
2023/02/07 10:06:21;;;;;;;42.80;22.13;;;;;;;-4.77;100.00;103479.44;5066059;28;20460;-72
2023/02/07 10:08:51;;;;;;;47.47;22.13;;;;;;;-4.70;100.00;103484.28;5066342;28;20512;-73
2023/02/07 10:11:29;;;;;;;52.50;24.90;;;;;;;-4.65;100.00;103482.13;5070698;28;20910;-72
2023/02/07 10:14:13;;;;;;;47.80;23.07;;;;;;;-4.57;100.00;103481.09;5070159;28;20644;-73
2023/02/07 10:16:52;;;;;;;42.60;21.67;;;;;;;-4.47;100.00;103482.72;5073539;28;20550;-73
2023/02/07 10:19:34;;;;;;;45.47;21.43;;;;;;;-4.34;100.00;103482.03;5070626;28;20445;-73
2023/02/07 10:22:13;;;;;;;48.47;24.47;;;;;;;-4.24;100.00;103479.47;5056826;28;20460;-74
2023/02/07 10:25:11;;;;;;;51.50;22.50;;;;;;;-4.11;100.00;103478.81;5049862;28;20444;-72
2023/02/07 10:27:48;;;;;;;44.53;22.27;;;;;;;-4.03;100.00;103483.75;5068583;28;20446;-73
2023/02/07 10:30:16;;;;;;;53.77;23.83;;;;;;;-3.88;100.00;103483.16;5068442;28;20447;-73
2023/02/07 10:32:46;;;;;;;43.07;23.13;;;;;;;-3.77;100.00;103484.88;5071383;28;20492;-73
2023/02/07 10:35:18;;;;;;;54.73;22.90;;;;;;;-3.79;100.00;103476.22;5068934;28;20479;-73
2023/02/07 10:37:50;;;;;;;45.30;22.70;;;;;;;-3.60;100.00;103472.56;5069726;28;20467;-72
2023/02/07 10:40:20;;;;;;;43.97;21.57;;;;;;;-3.55;100.00;103474.69;5068202;28;20482;-72
2023/02/07 10:42:52;;;;;;;43.63;21.03;;;;;;;-3.50;100.00;103469.94;5070130;28;20479;-73
2023/02/07 10:45:18;;;;;;;53.87;21.23;;;;;;;-3.47;100.00;103470.19;5050595;28;20458;-73
2023/02/07 10:47:45;;;;;;;45.73;20.90;;;;;;;-3.46;100.00;103466.88;5066492;28;20451;-72
2023/02/07 10:50:16;;;;;;;52.87;23.80;;;;;;;-3.38;100.00;103459.78;5069037;28;20459;-73
2023/02/07 10:52:52;;;;;;;52.87;23.20;;;;;;;-3.27;100.00;103467.50;5066138;28;20510;-72
2023/02/07 10:55:33;;;;;;;44.37;21.60;;;;;;;-3.15;100.00;103465.00;5071505;28;20470;-72
2023/02/07 10:58:00;;;;;;;41.27;19.10;;;;;;;-3.09;100.00;103470.53;5054159;28;20453;-74
2023/02/07 11:00:28;;;;;;;32.83;18.37;;;;;;;-2.97;100.00;103465.47;5065990;28;20802;-73
2023/02/07 11:02:55;;;;;;;39.63;19.03;;;;;;;-2.93;100.00;103474.25;5052466;28;20492;-73
2023/02/07 11:05:54;;;;;;;42.60;19.83;;;;;;;-2.94;100.00;103467.34;5069957;28;20558;-73
2023/02/07 11:08:24;;;;;;;42.20;20.93;;;;;;;-2.95;100.00;103468.16;5072078;28;20445;-74
2023/02/07 11:10:52;;;;;;;45.77;20.80;;;;;;;-2.89;100.00;103460.94;5068213;28;20456;-72